Observation data for Jayton on 08/14/2020      Previous  Date  Next       Current Mesonet Observations  Soil Data  Daily Summary Page  Observations in Plain Language
KJTS 140500Z 19005KT 31/11 A2988 RMK A01 T03080112  RH  031%=      5-min Rain = 0
KJTS 140505Z 19006KT 31/11 A2988 RMK A01 T03070113  RH  031%=      5-min Rain = 0
KJTS 140510Z 19006KT 31/11 A2988 RMK A01 T03060113  RH  031%=      5-min Rain = 0
KJTS 140515Z 20006KT 31/11 A2989 RMK A01 T03060113  RH  032%=      5-min Rain = 0
KJTS 140520Z 20006KT 31/11 A2989 RMK A01 T03070114  RH  032%=      5-min Rain = 0
KJTS 140525Z 20006KT 31/11 A2989 RMK A01 T03050114  RH  032%=      5-min Rain = 0
KJTS 140530Z 20006KT 31/11 A2989 RMK A01 T03080114  RH  031%=      5-min Rain = 0
KJTS 140535Z 21006KT 30/11 A2989 RMK A01 T03040114  RH  032%=      5-min Rain = 0
KJTS 140540Z 21007KT 30/11 A2989 RMK A01 T03000114  RH  033%=      5-min Rain = 0
KJTS 140545Z 21007KT 30/11 A2989 RMK A01 T03040114  RH  032%=      5-min Rain = 0
KJTS 140550Z 21008KT 31/11 A2989 RMK A01 T03090114  RH  031%=      5-min Rain = 0
KJTS 140555Z 21007KT 31/11 A2989 RMK A01 T03110113  RH  031%=      5-min Rain = 0
KJTS 140600Z 21007KT 31/11 A2989 RMK A01 T03090113  RH  031%=      5-min Rain = 0
KJTS 140605Z 21006KT 31/11 A2989 RMK A01 T03070114  RH  032%=      5-min Rain = 0
KJTS 140610Z 21006KT 31/11 A2989 RMK A01 T03060113  RH  032%=      5-min Rain = 0
KJTS 140615Z 21006KT 30/11 A2989 RMK A01 T03040113  RH  032%=      5-min Rain = 0
KJTS 140620Z 21006KT 30/11 A2989 RMK A01 T03030114  RH  032%=      5-min Rain = 0
KJTS 140625Z 22006KT 30/11 A2989 RMK A01 T03020113  RH  032%=      5-min Rain = 0
KJTS 140630Z 22006KT 30/11 A299 RMK A01 T03020113  RH  032%=      5-min Rain = 0
KJTS 140635Z 22006KT 30/11 A299 RMK A01 T03030113  RH  032%=      5-min Rain = 0
KJTS 140640Z 21006KT 30/11 A299 RMK A01 T03020114  RH  032%=      5-min Rain = 0
KJTS 140645Z 21005KT 30/11 A299 RMK A01 T03010114  RH  033%=      5-min Rain = 0
KJTS 140650Z 22005KT 30/11 A299 RMK A01 T02990114  RH  033%=      5-min Rain = 0
KJTS 140655Z 22005KT 30/11 A299 RMK A01 T02980114  RH  033%=      5-min Rain = 0
KJTS 140700Z 21004KT 30/11 A299 RMK A01 T02990114  RH  033%=      5-min Rain = 0
KJTS 140705Z 22005KT 30/11 A299 RMK A01 T02980114  RH  033%=      5-min Rain = 0
KJTS 140710Z 22006KT 30/11 A299 RMK A01 T02970114  RH  034%=      5-min Rain = 0
KJTS 140715Z 21006KT 30/12 A299 RMK A01 T02970115  RH  034%=      5-min Rain = 0
KJTS 140720Z 21006KT 30/12 A299 RMK A01 T02970116  RH  034%=      5-min Rain = 0
KJTS 140725Z 22006KT 30/12 A299 RMK A01 T02960116  RH  034%=      5-min Rain = 0
KJTS 140730Z 22007KT 30/12 A299 RMK A01 T02980117  RH  034%=      5-min Rain = 0
KJTS 140735Z 22008KT 30/12 A299 RMK A01 T03010117  RH  034%=      5-min Rain = 0
KJTS 140740Z 22007KT 30/12 A299 RMK A01 T03010118  RH  034%=      5-min Rain = 0
KJTS 140745Z 22008KT 30/12 A299 RMK A01 T03010119  RH  034%=      5-min Rain = 0
KJTS 140750Z 22008KT 30/12 A299 RMK A01 T03020119  RH  034%=      5-min Rain = 0
KJTS 140755Z 21007KT 30/12 A299 RMK A01 T02990120  RH  034%=      5-min Rain = 0
KJTS 140800Z 21007KT 30/12 A299 RMK A01 T02970120  RH  035%=      5-min Rain = 0
KJTS 140805Z 21007KT 30/12 A299 RMK A01 T02950120  RH  035%=      5-min Rain = 0
KJTS 140810Z 21006KT 29/12 A299 RMK A01 T02930121  RH  036%=      5-min Rain = 0
KJTS 140815Z 22006KT 29/12 A299 RMK A01 T02920122  RH  036%=      5-min Rain = 0
KJTS 140820Z 22006KT 29/12 A299 RMK A01 T02890122  RH  037%=      5-min Rain = 0
KJTS 140825Z 22006KT 29/12 A299 RMK A01 T02890123  RH  037%=      5-min Rain = 0
KJTS 140830Z 22007KT 29/12 A299 RMK A01 T02890123  RH  037%=      5-min Rain = 0
KJTS 140835Z 23007KT 29/12 A299 RMK A01 T02920124  RH  037%=      5-min Rain = 0
KJTS 140840Z 23007KT 29/13 A299 RMK A01 T02940125  RH  037%=      5-min Rain = 0
KJTS 140845Z 23007KT 30/13 A299 RMK A01 T02950125  RH  037%=      5-min Rain = 0
KJTS 140850Z 23007KT 30/13 A299 RMK A01 T02950126  RH  037%=      5-min Rain = 0
KJTS 140855Z 22007KT 30/13 A299 RMK A01 T02950127  RH  037%=      5-min Rain = 0
KJTS 140900Z 23007KT 29/13 A299 RMK A01 T02920128  RH  038%=      5-min Rain = 0
KJTS 140905Z 23007KT 29/13 A2989 RMK A01 T02910128  RH  038%=      5-min Rain = 0
KJTS 140910Z 23007KT 29/13 A299 RMK A01 T02920130  RH  038%=      5-min Rain = 0
KJTS 140915Z 23005KT 29/13 A299 RMK A01 T02890130  RH  039%=      5-min Rain = 0
KJTS 140920Z 23005KT 29/13 A299 RMK A01 T02860130  RH  040%=      5-min Rain = 0
KJTS 140925Z 22005KT 29/13 A2989 RMK A01 T02850131  RH  040%=      5-min Rain = 0
KJTS 140930Z 22005KT 28/13 A2989 RMK A01 T02840132  RH  041%=      5-min Rain = 0
KJTS 140935Z 23005KT 28/13 A2989 RMK A01 T02790132  RH  042%=      5-min Rain = 0
KJTS 140940Z 23005KT 28/13 A2989 RMK A01 T02770132  RH  043%=      5-min Rain = 0
KJTS 140945Z 23006KT 28/13 A2989 RMK A01 T02750133  RH  043%=      5-min Rain = 0
KJTS 140950Z 23005KT 27/13 A2989 RMK A01 T02740133  RH  044%=      5-min Rain = 0
KJTS 140955Z 23005KT 27/13 A2989 RMK A01 T02730133  RH  044%=      5-min Rain = 0
KJTS 141000Z 24006KT 27/13 A2989 RMK A01 T02730134  RH  044%=      5-min Rain = 0
KJTS 141005Z 23006KT 28/14 A2989 RMK A01 T02760135  RH  044%=      5-min Rain = 0
KJTS 141010Z 24006KT 28/14 A2989 RMK A01 T02780135  RH  043%=      5-min Rain = 0
KJTS 141015Z 24007KT 28/14 A2989 RMK A01 T02790136  RH  043%=      5-min Rain = 0
KJTS 141020Z 23006KT 28/14 A2989 RMK A01 T02810136  RH  043%=      5-min Rain = 0
KJTS 141025Z 24007KT 28/14 A2989 RMK A01 T02810136  RH  043%=      5-min Rain = 0
KJTS 141030Z 24007KT 28/14 A2989 RMK A01 T02830137  RH  042%=      5-min Rain = 0
KJTS 141035Z 23007KT 28/14 A2989 RMK A01 T02840137  RH  042%=      5-min Rain = 0
KJTS 141040Z 23006KT 29/14 A2989 RMK A01 T02850137  RH  042%=      5-min Rain = 0
KJTS 141045Z 23006KT 28/14 A299 RMK A01 T02820137  RH  043%=      5-min Rain = 0
KJTS 141050Z 23007KT 28/14 A299 RMK A01 T02820137  RH  043%=      5-min Rain = 0
KJTS 141055Z 23007KT 28/14 A299 RMK A01 T02820137  RH  043%=      5-min Rain = 0
KJTS 141100Z 23007KT 28/14 A299 RMK A01 T02810137  RH  043%=      5-min Rain = 0
KJTS 141105Z 22006KT 28/14 A299 RMK A01 T02780137  RH  044%=      5-min Rain = 0
KJTS 141110Z 22006KT 28/14 A299 RMK A01 T02750136  RH  044%=      5-min Rain = 0
KJTS 141115Z 23006KT 27/14 A299 RMK A01 T02740136  RH  045%=      5-min Rain = 0
KJTS 141120Z 24007KT 28/14 A2991 RMK A01 T02750136  RH  044%=      5-min Rain = 0
KJTS 141125Z 24007KT 28/14 A2991 RMK A01 T02750136  RH  044%=      5-min Rain = 0
KJTS 141130Z 24006KT 28/14 A2991 RMK A01 T02760136  RH  044%=      5-min Rain = 0
KJTS 141135Z 26006KT 27/14 A2991 RMK A01 T02730136  RH  045%=      5-min Rain = 0
KJTS 141140Z 26007KT 27/14 A2991 RMK A01 T02720136  RH  045%=      5-min Rain = 0
KJTS 141145Z 25007KT 28/14 A2991 RMK A01 T02750136  RH  044%=      5-min Rain = 0
KJTS 141150Z 24008KT 28/14 A2992 RMK A01 T02780136  RH  043%=      5-min Rain = 0
KJTS 141155Z 24008KT 28/14 A2992 RMK A01 T02810136  RH  043%=      5-min Rain = 0
KJTS 141200Z 24007KT 28/14 A2992 RMK A01 T02810137  RH  043%=      5-min Rain = 0
KJTS 141205Z 24006KT 28/14 A2992 RMK A01 T02790137  RH  043%=      5-min Rain = 0
KJTS 141210Z 24006KT 28/14 A2992 RMK A01 T02770137  RH  044%=      5-min Rain = 0
KJTS 141215Z 24006KT 28/14 A2992 RMK A01 T02760137  RH  044%=      5-min Rain = 0
KJTS 141220Z 23006KT 28/14 A2992 RMK A01 T02760137  RH  044%=      5-min Rain = 0
KJTS 141225Z 24006KT 28/14 A2993 RMK A01 T02750137  RH  045%=      5-min Rain = 0
KJTS 141230Z 24006KT 27/14 A2993 RMK A01 T02730138  RH  045%=      5-min Rain = 0
KJTS 141235Z 24006KT 27/14 A2993 RMK A01 T02720138  RH  045%=      5-min Rain = 0
KJTS 141240Z 24007KT 27/14 A2993 RMK A01 T02740138  RH  045%=      5-min Rain = 0
KJTS 141245Z 24007KT 28/14 A2993 RMK A01 T02750138  RH  045%=      5-min Rain = 0
KJTS 141250Z 24006KT 28/14 A2993 RMK A01 T02750139  RH  045%=      5-min Rain = 0
KJTS 141255Z 24006KT 28/14 A2993 RMK A01 T02760140  RH  045%=      5-min Rain = 0
KJTS 141300Z 23006KT 28/14 A2993 RMK A01 T02780140  RH  045%=      5-min Rain = 0
KJTS 141305Z 24005KT 28/14 A2993 RMK A01 T02790140  RH  044%=      5-min Rain = 0
KJTS 141310Z 23005KT 28/14 A2993 RMK A01 T02800141  RH  044%=      5-min Rain = 0
KJTS 141315Z 23005KT 28/14 A2993 RMK A01 T02820141  RH  044%=      5-min Rain = 0
KJTS 141320Z 23006KT 28/14 A2994 RMK A01 T02830141  RH  043%=      5-min Rain = 0
KJTS 141325Z 23006KT 29/14 A2994 RMK A01 T02860141  RH  043%=      5-min Rain = 0
KJTS 141330Z 22007KT 29/14 A2994 RMK A01 T02890141  RH  042%=      5-min Rain = 0
KJTS 141335Z 22006KT 29/14 A2994 RMK A01 T02920142  RH  042%=      5-min Rain = 0
KJTS 141340Z 23007KT 29/14 A2994 RMK A01 T02940142  RH  041%=      5-min Rain = 0
KJTS 141345Z 24007KT 30/14 A2994 RMK A01 T02970142  RH  040%=      5-min Rain = 0
KJTS 141350Z 24007KT 30/14 A2994 RMK A01 T03000141  RH  040%=      5-min Rain = 0
KJTS 141355Z 23008KT 30/14 A2995 RMK A01 T03030140  RH  039%=      5-min Rain = 0
KJTS 141400Z 23007KT 31/14 A2995 RMK A01 T03050141  RH  038%=      5-min Rain = 0
KJTS 141405Z 23007KT 31/14 A2995 RMK A01 T03100142  RH  038%=      5-min Rain = 0
KJTS 141410Z 22010KT 31/14 A2995 RMK A01 T03110141  RH  037%=      5-min Rain = 0
KJTS 141415Z 22009G14KT 32/14 A2995 RMK A01 T03160141  RH  036%=      5-min Rain = 0
KJTS 141420Z 23010G15KT 32/14 A2995 RMK A01 T03200140  RH  035%=      5-min Rain = 0
KJTS 141425Z 23010KT 32/14 A2995 RMK A01 T03230140  RH  034%=      5-min Rain = 0
KJTS 141430Z 23012KT 32/14 A2995 RMK A01 T03220140  RH  034%=      5-min Rain = 0
KJTS 141435Z 23011G17KT 33/14 A2995 RMK A01 T03270141  RH  034%=      5-min Rain = 0
KJTS 141440Z 23013G19KT 33/14 A2995 RMK A01 T03260140  RH  034%=      5-min Rain = 0
KJTS 141445Z 22014G19KT 33/14 A2995 RMK A01 T03290140  RH  033%=      5-min Rain = 0
KJTS 141450Z 23013G18KT 33/14 A2995 RMK A01 T03320141  RH  033%=      5-min Rain = 0
KJTS 141455Z 23014G19KT 33/14 A2995 RMK A01 T03340140  RH  032%=      5-min Rain = 0
KJTS 141500Z 22013G19KT 34/14 A2995 RMK A01 T03360140  RH  032%=      5-min Rain = 0
KJTS 141505Z 22012G18KT 34/14 A2995 RMK A01 T03380140  RH  032%=      5-min Rain = 0
KJTS 141510Z 23013G18KT 34/14 A2995 RMK A01 T03410140  RH  031%=      5-min Rain = 0
KJTS 141515Z 23010G16KT 35/14 A2994 RMK A01 T03450141  RH  031%=      5-min Rain = 0
KJTS 141520Z 22012KT 35/14 A2994 RMK A01 T03490140  RH  030%=      5-min Rain = 0
KJTS 141525Z 22012KT 35/14 A2994 RMK A01 T03500139  RH  030%=      5-min Rain = 0
KJTS 141530Z 23011KT 35/14 A2994 RMK A01 T03510140  RH  029%=      5-min Rain = 0
KJTS 141535Z 24011G16KT 35/14 A2994 RMK A01 T03520138  RH  029%=      5-min Rain = 0
KJTS 141540Z 24011G16KT 35/14 A2994 RMK A01 T03540138  RH  029%=      5-min Rain = 0
KJTS 141545Z 22010G15KT 36/14 A2994 RMK A01 T03630140  RH  028%=      5-min Rain = 0
KJTS 141550Z 22011KT 37/14 A2994 RMK A01 T03660141  RH  027%=      5-min Rain = 0
KJTS 141555Z 21012KT 37/14 A2994 RMK A01 T03700140  RH  026%=      5-min Rain = 0
KJTS 141600Z 24011KT 38/14 A2994 RMK A01 T03750141  RH  026%=      5-min Rain = 0
KJTS 141605Z 24011G17KT 38/14 A2994 RMK A01 T03750138  RH  026%=      5-min Rain = 0
KJTS 141610Z 24010KT 37/14 A2994 RMK A01 T03660135  RH  026%=      5-min Rain = 0
KJTS 141615Z 24012KT 37/14 A2994 RMK A01 T03660135  RH  026%=      5-min Rain = 0
KJTS 141620Z 23012KT 37/13 A2994 RMK A01 T03650133  RH  026%=      5-min Rain = 0
KJTS 141625Z 23010KT 37/14 A2994 RMK A01 T03650135  RH  026%=      5-min Rain = 0
KJTS 141630Z 24011KT 36/14 A2994 RMK A01 T03640135  RH  027%=      5-min Rain = 0
KJTS 141635Z 24009KT 37/14 A2994 RMK A01 T03700135  RH  026%=      5-min Rain = 0
KJTS 141640Z 24011KT 37/14 A2994 RMK A01 T03720135  RH  025%=      5-min Rain = 0
KJTS 141645Z 24010KT 37/14 A2994 RMK A01 T03710137  RH  026%=      5-min Rain = 0
KJTS 141650Z 23009G14KT 38/14 A2994 RMK A01 T03780138  RH  025%=      5-min Rain = 0
KJTS 141655Z 26009G17KT 38/14 A2994 RMK A01 T03770136  RH  025%=      5-min Rain = 0
KJTS 141700Z 25008G13KT 37/13 A2994 RMK A01 T03700133  RH  025%=      5-min Rain = 0
KJTS 141705Z 25010KT 37/13 A2994 RMK A01 T03670133  RH  026%=      5-min Rain = 0
KJTS 141710Z 25011KT 37/13 A2994 RMK A01 T03660134  RH  026%=      5-min Rain = 0
KJTS 141715Z 25011KT 36/13 A2994 RMK A01 T03640132  RH  026%=      5-min Rain = 0
KJTS 141720Z 25010KT 36/13 A2993 RMK A01 T03640133  RH  026%=      5-min Rain = 0
KJTS 141725Z 24010KT 37/13 A2993 RMK A01 T03700134  RH  025%=      5-min Rain = 0
KJTS 141730Z 22009KT 37/13 A2993 RMK A01 T03730134  RH  025%=      5-min Rain = 0
KJTS 141735Z 24011KT 37/13 A2993 RMK A01 T03700126  RH  024%=      5-min Rain = 0
KJTS 141740Z 24010KT 37/13 A2993 RMK A01 T03740125  RH  023%=      5-min Rain = 0
KJTS 141745Z 22009KT 38/13 A2993 RMK A01 T03800128  RH  023%=      5-min Rain = 0
KJTS 141750Z 22010G17KT 39/13 A2993 RMK A01 T03900130  RH  022%=      5-min Rain = 0
KJTS 141755Z 22010G16KT 39/13 A2993 RMK A01 T03870130  RH  023%=      5-min Rain = 0
KJTS 141800Z 23010KT 39/13 A2992 RMK A01 T03930127  RH  021%=      5-min Rain = 0
KJTS 141805Z 23012KT 39/13 A2992 RMK A01 T03910127  RH  022%=      5-min Rain = 0
KJTS 141810Z 23010G18KT 39/13 A2992 RMK A01 T03900129  RH  022%=      5-min Rain = 0
KJTS 141815Z 24009KT 39/13 A2992 RMK A01 T03930130  RH  022%=      5-min Rain = 0
KJTS 141820Z 24010KT 40/13 A2992 RMK A01 T03960127  RH  021%=      5-min Rain = 0
KJTS 141825Z 23008G15KT 39/13 A2991 RMK A01 T03900126  RH  022%=      5-min Rain = 0
KJTS 141830Z 22008KT 40/12 A2991 RMK A01 T03960124  RH  021%=      5-min Rain = 0
KJTS 141835Z 23009KT 41/12 A2991 RMK A01 T04050124  RH  020%=      5-min Rain = 0
KJTS 141840Z 24010KT 40/13 A2991 RMK A01 T04020125  RH  020%=      5-min Rain = 0
KJTS 141845Z 23010KT 40/13 A299 RMK A01 T03980125  RH  021%=      5-min Rain = 0
KJTS 141850Z 22009KT 40/13 A299 RMK A01 T03990125  RH  020%=      5-min Rain = 0
KJTS 141855Z 24008G14KT 40/13 A299 RMK A01 T04010126  RH  020%=      5-min Rain = 0
KJTS 141900Z 22009G14KT 40/12 A299 RMK A01 T04040123  RH  020%=      5-min Rain = 0
KJTS 141905Z 24007KT 41/12 A299 RMK A01 T04100124  RH  019%=      5-min Rain = 0
KJTS 141910Z 24007G13KT 42/12 A299 RMK A01 T04160122  RH  018%=      5-min Rain = 0
KJTS 141915Z 23008KT 42/12 A299 RMK A01 T04150122  RH  018%=      5-min Rain = 0
KJTS 141920Z 21010G15KT 42/12 A2989 RMK A01 T04180118  RH  018%=      5-min Rain = 0
KJTS 141925Z 22010G16KT 42/11 A2989 RMK A01 T04190112  RH  017%=      5-min Rain = 0
KJTS 141930Z 25010KT 43/11 A2989 RMK A01 T04250110  RH  016%=      5-min Rain = 0
KJTS 141935Z 22007KT 42/11 A2989 RMK A01 T04200107  RH  016%=      5-min Rain = 0
KJTS 141940Z 26010KT 42/11 A2988 RMK A01 T04240107  RH  016%=      5-min Rain = 0
KJTS 141945Z 23008G13KT 42/10 A2988 RMK A01 T04240100  RH  015%=      5-min Rain = 0
KJTS 141950Z 23005G10KT 43/10 A2988 RMK A01 T04260099  RH  015%=      5-min Rain = 0
KJTS 141955Z 21009KT 43/11 A2988 RMK A01 T04290106  RH  015%=      5-min Rain = 0
KJTS 142000Z 21010KT 42/10 A2987 RMK A01 T04220103  RH  016%=      5-min Rain = 0
KJTS 142005Z 20008KT 43/10 A2987 RMK A01 T04280102  RH  015%=      5-min Rain = 0
KJTS 142010Z 20008KT 43/10 A2987 RMK A01 T04290103  RH  015%=      5-min Rain = 0
KJTS 142015Z 20009G14KT 44/11 A2987 RMK A01 T04350108  RH  015%=      5-min Rain = 0
KJTS 142020Z 20007G12KT 43/10 A2987 RMK A01 T04250104  RH  015%=      5-min Rain = 0
KJTS 142025Z 18007G12KT 42/10 A2986 RMK A01 T04180102  RH  016%=      5-min Rain = 0
KJTS 142030Z 19009G15KT 42/10 A2986 RMK A01 T04170101  RH  016%=      5-min Rain = 0
KJTS 142035Z 19008KT 42/10 A2986 RMK A01 T04200099  RH  015%=      5-min Rain = 0
KJTS 142040Z 19006KT 42/10 A2985 RMK A01 T04230100  RH  015%=      5-min Rain = 0
KJTS 142045Z 16002G7KT 43/10 A2985 RMK A01 T04290099  RH  015%=      5-min Rain = 0
KJTS 142050Z 34002KT 43/10 A2985 RMK A01 T04280096  RH  014%=      5-min Rain = 0
KJTS 142055Z 29005G11KT 43/09 A2984 RMK A01 T04300094  RH  014%=      5-min Rain = 0
KJTS 142100Z 25008KT 43/09 A2984 RMK A01 T04310092  RH  014%=      5-min Rain = 0
KJTS 142105Z 23005KT 43/09 A2984 RMK A01 T04320090  RH  014%=      5-min Rain = 0
KJTS 142110Z 24005G12KT 43/09 A2984 RMK A01 T04270088  RH  014%=      5-min Rain = 0
KJTS 142115Z 26006G12KT 42/09 A2983 RMK A01 T04230090  RH  014%=      5-min Rain = 0
KJTS 142120Z 23008KT 43/09 A2983 RMK A01 T04320093  RH  014%=      5-min Rain = 0
KJTS 142125Z 27007G14KT 43/09 A2983 RMK A01 T04320090  RH  013%=      5-min Rain = 0
KJTS 142130Z 28006KT 43/09 A2983 RMK A01 T04280085  RH  013%=      5-min Rain = 0
KJTS 142135Z 32007KT 43/09 A2982 RMK A01 T04330086  RH  013%=      5-min Rain = 0
KJTS 142140Z 34008KT 43/09 A2982 RMK A01 T04310087  RH  013%=      5-min Rain = 0
KJTS 142145Z 34005KT 43/09 A2982 RMK A01 T04270086  RH  013%=      5-min Rain = 0
KJTS 142150Z 31005KT 43/09 A2982 RMK A01 T04320086  RH  013%=      5-min Rain = 0
KJTS 142155Z 30003KT 43/09 A2982 RMK A01 T04320085  RH  013%=      5-min Rain = 0
KJTS 142200Z 26004KT 43/09 A2981 RMK A01 T04330086  RH  013%=      5-min Rain = 0
KJTS 142205Z 22008KT 43/09 A2981 RMK A01 T04340089  RH  013%=      5-min Rain = 0
KJTS 142210Z 19007KT 43/09 A2981 RMK A01 T04340090  RH  013%=      5-min Rain = 0
KJTS 142215Z 23006KT 44/09 A2982 RMK A01 T04360091  RH  013%=      5-min Rain = 0
KJTS 142220Z 14005KT 43/09 A2981 RMK A01 T04300091  RH  014%=      5-min Rain = 0
KJTS 142225Z 21005G12KT 44/09 A2981 RMK A01 T04350089  RH  013%=      5-min Rain = 0
KJTS 142230Z 19007KT 43/09 A2982 RMK A01 T04310086  RH  013%=      5-min Rain = 0
KJTS 142235Z 16004KT 43/09 A2982 RMK A01 T04290085  RH  013%=      5-min Rain = 0
KJTS 142240Z 22002KT 43/08 A2982 RMK A01 T04310084  RH  013%=      5-min Rain = 0
KJTS 142245Z 28005G11KT 43/09 A2982 RMK A01 T04280086  RH  013%=      5-min Rain = 0
KJTS 142250Z 30006KT 43/09 A2982 RMK A01 T04250091  RH  014%=      5-min Rain = 0
KJTS 142255Z 30007KT 43/09 A2982 RMK A01 T04270090  RH  014%=      5-min Rain = 0
KJTS 142300Z 27011KT 43/10 A2982 RMK A01 T04290095  RH  014%=      5-min Rain = 0
KJTS 142305Z 26008KT 42/10 A2982 RMK A01 T04190096  RH  015%=      5-min Rain = 0
KJTS 142310Z 25014G20KT 42/10 A2982 RMK A01 T04160095  RH  015%=      5-min Rain = 0
KJTS 142315Z 24013G18KT 42/10 A2982 RMK A01 T04170097  RH  015%=      5-min Rain = 0
KJTS 142320Z 24013G20KT 42/10 A2982 RMK A01 T04160098  RH  016%=      5-min Rain = 0
KJTS 142325Z 23013G19KT 41/10 A2982 RMK A01 T04090099  RH  016%=      5-min Rain = 0
KJTS 142330Z 24013G18KT 40/10 A2982 RMK A01 T04030097  RH  017%=      5-min Rain = 0
KJTS 142335Z 23015G20KT 40/09 A2982 RMK A01 T04000094  RH  016%=      5-min Rain = 0
KJTS 142340Z 23011KT 40/09 A2982 RMK A01 T03980094  RH  017%=      5-min Rain = 0
KJTS 142345Z 22009KT 40/10 A2982 RMK A01 T03960097  RH  017%=      5-min Rain = 0
KJTS 142350Z 23010KT 39/10 A2983 RMK A01 T03930098  RH  018%=      5-min Rain = 0
KJTS 142355Z 24009G15KT 39/10 A2983 RMK A01 T03900098  RH  018%=      5-min Rain = 0
KJTS 150000Z 27014G41KT 39/10 A2983 RMK A01 T03860098  RH  018%=      5-min Rain = 0
KJTS 150005Z 35022G28KT 38/10 A2985 RMK A01 T03750099  RH  019%=      5-min Rain = 0
KJTS 150010Z 36015G23KT 36/10 A2986 RMK A01 T03600102  RH  022%=      5-min Rain = 0
KJTS 150015Z 35018G26KT 36/11 A2986 RMK A01 T03550107  RH  023%=      5-min Rain = 0
KJTS 150020Z 35019G24KT 35/11 A2986 RMK A01 T03540108  RH  023%=      5-min Rain = 0
KJTS 150025Z 36018G24KT 35/11 A2987 RMK A01 T03520112  RH  024%=      5-min Rain = 0
KJTS 150030Z 36015G20KT 35/11 A2987 RMK A01 T03510113  RH  024%=      5-min Rain = 0
KJTS 150035Z 35011G17KT 35/11 A2987 RMK A01 T03510113  RH  024%=      5-min Rain = 0
KJTS 150040Z 35012KT 35/11 A2988 RMK A01 T03520111  RH  024%=      5-min Rain = 0
KJTS 150045Z 36010KT 35/11 A299 RMK A01 T03500114  RH  025%=      5-min Rain = 0
KJTS 150050Z 34010KT 35/11 A2991 RMK A01 T03510111  RH  024%=      5-min Rain = 0
KJTS 150055Z 32010KT 35/12 A2992 RMK A01 T03490117  RH  026%=      5-min Rain = 0
KJTS 150100Z 31015G20KT 34/13 A2993 RMK A01 T03420126  RH  028%=      5-min Rain = 0
KJTS 150105Z 30017G22KT 35/12 A2993 RMK A01 T03500115  RH  025%=      5-min Rain = 0
KJTS 150110Z 32014G22KT 36/11 A2993 RMK A01 T03550112  RH  024%=      5-min Rain = 0
KJTS 150115Z 32019G27KT 34/13 A2994 RMK A01 T03410129  RH  029%=      5-min Rain = 0
KJTS 150120Z 32016G21KT 33/13 A2994 RMK A01 T03330133  RH  031%=      5-min Rain = 0
KJTS 150125Z 32016G21KT 33/13 A2994 RMK A01 T03320132  RH  031%=      5-min Rain = 0
KJTS 150130Z 32014KT 33/13 A2995 RMK A01 T03310134  RH  032%=      5-min Rain = 0
KJTS 150135Z 31010KT 33/14 A2996 RMK A01 T03280139  RH  033%=      5-min Rain = 0
KJTS 150140Z 31008KT 32/15 A2996 RMK A01 T03230146  RH  036%=      5-min Rain = 0
KJTS 150145Z 31008KT 32/14 A2996 RMK A01 T03230142  RH  035%=      5-min Rain = 0
KJTS 150150Z 31012KT 33/14 A2996 RMK A01 T03250142  RH  035%=      5-min Rain = 0
KJTS 150155Z 31014KT 33/14 A2997 RMK A01 T03260139  RH  034%=      5-min Rain = 0
KJTS 150200Z 30008G15KT 33/13 A2998 RMK A01 T03300134  RH  032%=      5-min Rain = 0
KJTS 150205Z 27011KT 33/13 A2998 RMK A01 T03320126  RH  030%=      5-min Rain = 0
KJTS 150210Z 28008KT 33/13 A2998 RMK A01 T03330129  RH  030%=      5-min Rain = 0
KJTS 150215Z 33004KT 34/12 A2998 RMK A01 T03360124  RH  029%=      5-min Rain = 0
KJTS 150220Z 04005KT 33/13 A2997 RMK A01 T03340131  RH  031%=      5-min Rain = 0
KJTS 150225Z 03008KT 32/14 A2997 RMK A01 T03230138  RH  034%=      5-min Rain = 0
KJTS 150230Z 04008KT 32/15 A2997 RMK A01 T03220145  RH  036%=      5-min Rain = 0
KJTS 150235Z 07010KT 32/15 A2996 RMK A01 T03160151  RH  039%=      5-min Rain = 0
KJTS 150240Z 08012KT 32/14 A2995 RMK A01 T03160144  RH  037%=      5-min Rain = 0
KJTS 150245Z 08014KT 32/14 A2994 RMK A01 T03200139  RH  035%=      5-min Rain = 0
KJTS 150250Z 09013KT 32/14 A2993 RMK A01 T03200137  RH  034%=      5-min Rain = 0
KJTS 150255Z 09011KT 33/13 A2993 RMK A01 T03250133  RH  033%=      5-min Rain = 0
KJTS 150300Z 07010G17KT 33/13 A2994 RMK A01 T03290128  RH  031%=      5-min Rain = 0
KJTS 150305Z 07008KT 33/13 A2994 RMK A01 T03300129  RH  031%=      5-min Rain = 0
KJTS 150310Z 09006KT 33/13 A2995 RMK A01 T03280131  RH  031%=      5-min Rain = 0
KJTS 150315Z 09005KT 33/13 A2995 RMK A01 T03280131  RH  032%=      5-min Rain = 0
KJTS 150320Z 05003KT 33/13 A2995 RMK A01 T03270130  RH  032%=      5-min Rain = 0
KJTS 150325Z 02005KT 33/13 A2995 RMK A01 T03270132  RH  032%=      5-min Rain = 0
KJTS 150330Z 35006KT 32/14 A2995 RMK A01 T03220139  RH  034%=      5-min Rain = 0
KJTS 150335Z 34006KT 31/15 A2995 RMK A01 T03130145  RH  038%=      5-min Rain = 0
KJTS 150340Z 33009KT 31/14 A2995 RMK A01 T03080144  RH  038%=      5-min Rain = 0
KJTS 150345Z 34007KT 31/14 A2995 RMK A01 T03120138  RH  036%=      5-min Rain = 0
KJTS 150350Z 35005KT 32/14 A2994 RMK A01 T03160135  RH  035%=      5-min Rain = 0
KJTS 150355Z 34006KT 32/13 A2994 RMK A01 T03180134  RH  034%=      5-min Rain = 0
KJTS 150400Z 35005KT 31/14 A2993 RMK A01 T03140137  RH  036%=      5-min Rain = 0
KJTS 150405Z 36003KT 32/13 A2993 RMK A01 T03150133  RH  034%=      5-min Rain = 0
KJTS 150410Z 12005KT 31/15 A2992 RMK A01 T03080147  RH  039%=      5-min Rain = 0
KJTS 150415Z 11010G17KT 30/14 A2991 RMK A01 T03020144  RH  040%=      5-min Rain = 0
KJTS 150420Z 11010G15KT 31/14 A2991 RMK A01 T03070136  RH  037%=      5-min Rain = 0
KJTS 150425Z 15009KT 31/14 A299 RMK A01 T03100135  RH  036%=      5-min Rain = 0
KJTS 150430Z 17010KT 31/13 A2989 RMK A01 T03120133  RH  035%=      5-min Rain = 0
KJTS 150435Z 17007KT 31/13 A2988 RMK A01 T03120132  RH  035%=      5-min Rain = 0
KJTS 150440Z 15009KT 32/13 A2988 RMK A01 T03150128  RH  033%=      5-min Rain = 0
KJTS 150445Z 15004KT 32/12 A2989 RMK A01 T03220123  RH  031%=      5-min Rain = 0
KJTS 150450Z 03005G11KT 32/12 A299 RMK A01 T03220122  RH  031%=      5-min Rain = 0
KJTS 150455Z 10004KT 33/11 A299 RMK A01 T03320114  RH  028%=      5-min Rain = 0

Page generated in 0.0093 seconds.